createdAt,value
2017-05-11T00:00:00.777Z,929.55
2017-05-11T00:00:20.751Z,929.56
2017-05-11T00:00:40.748Z,929.61
2017-05-11T00:01:00.189Z,929.57
2017-05-11T00:01:20.410Z,929.55
2017-05-11T00:01:39.910Z,929.61
2017-05-11T00:01:59.337Z,929.6
2017-05-11T00:02:19.334Z,929.59
2017-05-11T00:02:39.313Z,929.56
2017-05-11T00:02:59.275Z,929.58
2017-05-11T00:03:19.259Z,929.59
2017-05-11T00:03:38.706Z,929.57
2017-05-11T00:03:58.140Z,929.56
2017-05-11T00:04:17.604Z,929.58
2017-05-11T00:04:37.614Z,929.56
2017-05-11T00:04:57.603Z,929.59
2017-05-11T00:05:17.594Z,929.55
2017-05-11T00:05:37.613Z,929.55
2017-05-11T00:05:57.581Z,929.56
2017-05-11T00:06:17.535Z,929.58
2017-05-11T00:06:36.960Z,929.6
2017-05-11T00:06:56.964Z,929.54
2017-05-11T00:07:16.962Z,929.59
2017-05-11T00:07:36.389Z,929.58
2017-05-11T00:07:56.409Z,929.55
2017-05-11T00:08:15.866Z,929.58
2017-05-11T00:08:35.866Z,929.58
2017-05-11T00:08:55.880Z,929.57
2017-05-11T00:09:22.161Z,929.58
2017-05-11T00:09:42.161Z,929.55
2017-05-11T00:10:05.218Z,929.57
2017-05-11T00:10:24.647Z,929.58
2017-05-11T00:10:44.662Z,929.52
2017-05-11T00:11:04.647Z,929.57
2017-05-11T00:11:24.802Z,929.58
2017-05-11T00:11:44.845Z,929.5
2017-05-11T00:12:08.745Z,929.54
2017-05-11T00:12:28.737Z,929.54
2017-05-11T00:12:51.734Z,929.55
2017-05-11T00:13:11.716Z,929.53
2017-05-11T00:13:31.742Z,929.56
2017-05-11T00:13:51.692Z,929.58
2017-05-11T00:14:11.720Z,929.54
2017-05-11T00:14:38.023Z,929.55
2017-05-11T00:14:58.034Z,929.53
2017-05-11T00:15:18.035Z,929.57
2017-05-11T00:15:38.054Z,929.56
2017-05-11T00:15:58.054Z,929.53
2017-05-11T00:16:18.070Z,929.54
2017-05-11T00:16:38.469Z,929.56
2017-05-11T00:16:58.472Z,929.53
2017-05-11T00:17:18.468Z,929.55
2017-05-11T00:17:38.451Z,929.57
2017-05-11T00:17:58.429Z,929.56
2017-05-11T00:18:18.433Z,929.55
2017-05-11T00:18:38.415Z,929.54
2017-05-11T00:18:58.406Z,929.56
2017-05-11T00:19:17.853Z,929.57
2017-05-11T00:19:37.875Z,929.55
2017-05-11T00:19:57.910Z,929.56
2017-05-11T00:20:17.897Z,929.53
2017-05-11T00:20:37.856Z,929.55
2017-05-11T00:20:57.836Z,929.55
2017-05-11T00:21:17.822Z,929.57
2017-05-11T00:21:37.784Z,929.61
2017-05-11T00:21:57.751Z,929.57
2017-05-11T00:22:17.769Z,929.56
2017-05-11T00:22:36.594Z,929.57
2017-05-11T00:22:56.063Z,929.58
2017-05-11T00:23:15.509Z,929.6
2017-05-11T00:23:35.480Z,929.62
2017-05-11T00:23:55.438Z,929.61
2017-05-11T00:24:14.868Z,929.59
2017-05-11T00:24:34.272Z,929.61
2017-05-11T00:24:54.280Z,929.59
2017-05-11T00:25:14.259Z,929.62
2017-05-11T00:25:34.242Z,929.62
2017-05-11T00:25:54.221Z,929.63
2017-05-11T00:26:14.208Z,929.66
2017-05-11T00:26:34.372Z,929.66
2017-05-11T00:26:54.367Z,929.61
2017-05-11T00:27:13.778Z,929.61
2017-05-11T00:27:33.756Z,929.64
2017-05-11T00:28:03.124Z,929.65
2017-05-11T00:28:22.547Z,929.66
2017-05-11T00:28:42.540Z,929.65
2017-05-11T00:29:01.972Z,929.7
2017-05-11T00:29:21.435Z,929.67
2017-05-11T00:29:41.393Z,929.64
2017-05-11T00:30:00.239Z,929.64
2017-05-11T00:30:19.656Z,929.69
2017-05-11T00:30:39.651Z,929.65
2017-05-11T00:30:59.130Z,929.65
2017-05-11T00:31:19.192Z,929.63
2017-05-11T00:31:39.176Z,929.63
2017-05-11T00:31:59.170Z,929.63
2017-05-11T00:32:18.032Z,929.63
2017-05-11T00:32:38.050Z,929.61
2017-05-11T00:32:58.050Z,929.64
2017-05-11T00:33:18.152Z,929.66
2017-05-11T00:33:38.158Z,929.61
2017-05-11T00:33:58.148Z,929.6
2017-05-11T00:34:18.123Z,929.6
2017-05-11T00:34:37.554Z,929.63
2017-05-11T00:34:57.522Z,929.6
2017-05-11T00:35:17.542Z,929.61
2017-05-11T00:35:37.515Z,929.62
2017-05-11T00:35:57.538Z,929.64
2017-05-11T00:36:17.541Z,929.64
2017-05-11T00:36:37.548Z,929.63
2017-05-11T00:36:57.556Z,929.62
2017-05-11T00:37:17.558Z,929.64
2017-05-11T00:37:37.529Z,929.64
2017-05-11T00:37:57.504Z,929.61
2017-05-11T00:38:17.483Z,929.61
2017-05-11T00:38:37.477Z,929.63
2017-05-11T00:38:57.500Z,929.6
2017-05-11T00:39:17.515Z,929.66
2017-05-11T00:39:37.474Z,929.62
2017-05-11T00:39:57.454Z,929.65
2017-05-11T00:40:17.464Z,929.66
2017-05-11T00:40:36.882Z,929.61
2017-05-11T00:40:56.879Z,929.62
2017-05-11T00:41:16.886Z,929.64
2017-05-11T00:41:36.877Z,929.63
2017-05-11T00:41:56.289Z,929.64
2017-05-11T00:42:16.298Z,929.66
2017-05-11T00:42:35.775Z,929.61
2017-05-11T00:42:55.757Z,929.63
2017-05-11T00:43:15.755Z,929.63
2017-05-11T00:43:35.757Z,929.63
2017-05-11T00:43:55.833Z,929.63
2017-05-11T00:44:15.317Z,929.6
2017-05-11T00:44:35.316Z,929.61
2017-05-11T00:44:55.317Z,929.59
2017-05-11T00:45:15.325Z,929.6
2017-05-11T00:45:35.320Z,929.63
2017-05-11T00:45:55.329Z,929.64
2017-05-11T00:46:15.344Z,929.63
2017-05-11T00:46:35.340Z,929.63
2017-05-11T00:46:55.323Z,929.65
2017-05-11T00:47:15.319Z,929.68
2017-05-11T00:47:35.307Z,929.61
2017-05-11T00:47:54.756Z,929.63
2017-05-11T00:48:14.733Z,929.61
2017-05-11T00:48:34.691Z,929.64
2017-05-11T00:48:54.691Z,929.65
2017-05-11T00:49:14.686Z,929.67
2017-05-11T00:49:34.645Z,929.67
2017-05-11T00:49:54.046Z,929.67
2017-05-11T00:50:13.434Z,929.66
2017-05-11T00:50:33.387Z,929.66
2017-05-11T00:50:53.326Z,929.67
2017-05-11T00:51:12.765Z,929.67
2017-05-11T00:51:32.908Z,929.61
2017-05-11T00:51:52.885Z,929.65
2017-05-11T00:52:12.333Z,929.67
2017-05-11T00:52:32.321Z,929.68
2017-05-11T00:52:52.350Z,929.67
2017-05-11T00:53:12.353Z,929.62
2017-05-11T00:53:32.334Z,929.68
2017-05-11T00:53:52.309Z,929.68
2017-05-11T00:54:12.299Z,929.64
2017-05-11T00:54:32.260Z,929.66
2017-05-11T00:54:52.233Z,929.66
2017-05-11T00:55:12.256Z,929.67
2017-05-11T00:55:32.230Z,929.64
2017-05-11T00:55:52.218Z,929.66
2017-05-11T00:56:12.221Z,929.66
2017-05-11T00:56:32.460Z,929.64
2017-05-11T00:56:52.483Z,929.69
2017-05-11T00:57:11.879Z,929.69
2017-05-11T00:57:31.860Z,929.66
2017-05-11T00:57:51.817Z,929.64
2017-05-11T00:58:11.814Z,929.67
2017-05-11T00:58:31.786Z,929.68
2017-05-11T00:58:51.796Z,929.67
2017-05-11T00:59:11.239Z,929.62
2017-05-11T00:59:31.194Z,929.65
2017-05-11T00:59:51.188Z,929.66
2017-05-11T01:00:11.163Z,929.63
2017-05-11T01:00:31.166Z,929.69
2017-05-11T01:00:51.187Z,929.66
2017-05-11T01:01:11.205Z,929.68
2017-05-11T01:01:31.224Z,929.71
2017-05-11T01:01:51.215Z,929.66
2017-05-11T01:02:11.215Z,929.67
2017-05-11T01:02:31.241Z,929.67
2017-05-11T01:02:51.286Z,929.72
2017-05-11T01:03:11.303Z,929.7
2017-05-11T01:03:31.307Z,929.69
2017-05-11T01:03:51.228Z,929.69
2017-05-11T01:04:11.246Z,929.69
2017-05-11T01:04:31.274Z,929.71
2017-05-11T01:04:51.258Z,929.74
2017-05-11T01:05:11.281Z,929.68
2017-05-11T01:05:31.240Z,929.64
2017-05-11T01:05:51.240Z,929.68
2017-05-11T01:06:11.241Z,929.67
2017-05-11T01:06:31.400Z,929.71
2017-05-11T01:06:51.418Z,929.7
2017-05-11T01:07:10.843Z,929.68
2017-05-11T01:07:30.857Z,929.67
2017-05-11T01:07:50.874Z,929.71
2017-05-11T01:08:10.898Z,929.71
2017-05-11T01:08:30.896Z,929.7
2017-05-11T01:08:50.911Z,929.72
2017-05-11T01:09:10.351Z,929.69
2017-05-11T01:09:30.345Z,929.71
2017-05-11T01:09:49.779Z,929.71
2017-05-11T01:10:09.788Z,929.71
2017-05-11T01:10:29.786Z,929.7
2017-05-11T01:10:49.754Z,929.71
2017-05-11T01:11:09.742Z,929.69
2017-05-11T01:11:29.197Z,929.72
2017-05-11T01:11:49.188Z,929.72
2017-05-11T01:12:08.655Z,929.72
2017-05-11T01:12:28.648Z,929.7
2017-05-11T01:12:48.626Z,929.73
2017-05-11T01:13:08.632Z,929.72
2017-05-11T01:13:28.619Z,929.72
2017-05-11T01:13:48.625Z,929.72
2017-05-11T01:14:08.600Z,929.69
2017-05-11T01:14:28.023Z,929.73
2017-05-11T01:14:48.013Z,929.7
2017-05-11T01:15:07.408Z,929.73
2017-05-11T01:15:26.842Z,929.72
2017-05-11T01:15:46.824Z,929.71
2017-05-11T01:16:06.828Z,929.74
2017-05-11T01:16:27.067Z,929.73
2017-05-11T01:16:46.493Z,929.71
2017-05-11T01:17:06.470Z,929.72
2017-05-11T01:17:26.462Z,929.75
2017-05-11T01:17:46.449Z,929.74
2017-05-11T01:18:06.457Z,929.75
2017-05-11T01:18:25.898Z,929.76
2017-05-11T01:18:45.895Z,929.77
2017-05-11T01:19:05.894Z,929.76
2017-05-11T01:19:25.861Z,929.76
2017-05-11T01:19:45.309Z,929.74
2017-05-11T01:20:05.274Z,929.78
2017-05-11T01:20:25.278Z,929.77
2017-05-11T01:20:45.278Z,929.76
2017-05-11T01:21:04.735Z,929.77
2017-05-11T01:21:24.991Z,929.79
2017-05-11T01:21:44.432Z,929.86
2017-05-11T01:22:04.407Z,929.77
2017-05-11T01:22:24.399Z,929.79
2017-05-11T01:22:44.390Z,929.78
2017-05-11T01:23:04.391Z,929.78
2017-05-11T01:23:24.412Z,929.77
2017-05-11T01:23:44.401Z,929.77
2017-05-11T01:24:04.362Z,929.76
2017-05-11T01:24:24.336Z,929.77
2017-05-11T01:24:43.735Z,929.75
2017-05-11T01:25:03.741Z,929.8
2017-05-11T01:25:37.544Z,929.79
2017-05-11T01:25:57.516Z,929.76
2017-05-11T01:26:17.696Z,929.78
2017-05-11T01:26:37.673Z,929.79
2017-05-11T01:26:57.633Z,929.79
2017-05-11T01:27:17.641Z,929.78
2017-05-11T01:27:37.622Z,929.81
2017-05-11T01:28:02.609Z,929.82
2017-05-11T01:28:22.049Z,929.82
2017-05-11T01:28:42.041Z,929.81
2017-05-11T01:29:02.010Z,929.79
2017-05-11T01:29:22.014Z,929.77
2017-05-11T01:29:42.010Z,929.76
2017-05-11T01:30:02.049Z,929.76
2017-05-11T01:30:22.079Z,929.8
2017-05-11T01:30:42.074Z,929.8
2017-05-11T01:31:01.481Z,929.75
2017-05-11T01:31:21.741Z,929.78
2017-05-11T01:31:41.765Z,929.73
2017-05-11T01:32:01.267Z,929.71
2017-05-11T01:32:20.703Z,929.78
2017-05-11T01:32:39.554Z,929.74
2017-05-11T01:32:59.563Z,929.74
2017-05-11T01:33:19.564Z,929.78
2017-05-11T01:33:39.523Z,929.76
2017-05-11T01:33:59.525Z,929.78
2017-05-11T01:34:19.514Z,929.74
2017-05-11T01:34:39.502Z,929.75
2017-05-11T01:34:59.473Z,929.74
2017-05-11T01:35:19.467Z,929.74
2017-05-11T01:35:39.436Z,929.74
2017-05-11T01:35:59.465Z,929.73
2017-05-11T01:36:19.478Z,929.68
2017-05-11T01:36:38.894Z,929.67
2017-05-11T01:36:58.886Z,929.69
2017-05-11T01:37:18.879Z,929.69
2017-05-11T01:37:38.841Z,929.71
2017-05-11T01:37:58.290Z,929.71
2017-05-11T01:38:18.315Z,929.66
2017-05-11T01:38:38.293Z,929.68
2017-05-11T01:38:58.312Z,929.64
2017-05-11T01:39:18.323Z,929.68
2017-05-11T01:39:38.284Z,929.65
2017-05-11T01:39:58.258Z,929.67
2017-05-11T01:40:18.287Z,929.71
2017-05-11T01:40:38.277Z,929.71
2017-05-11T01:40:58.264Z,929.73
2017-05-11T01:41:18.800Z,929.69
2017-05-11T01:41:38.791Z,929.72
2017-05-11T01:41:58.779Z,929.7
2017-05-11T01:42:17.675Z,929.68
2017-05-11T01:42:37.695Z,929.69
2017-05-11T01:42:57.720Z,929.72
2017-05-11T01:43:17.732Z,929.73
2017-05-11T01:43:37.186Z,929.72
2017-05-11T01:43:57.234Z,929.73
2017-05-11T01:44:16.668Z,929.7
2017-05-11T01:44:36.634Z,929.72
2017-05-11T01:44:56.634Z,929.7
2017-05-11T01:45:16.669Z,929.71
2017-05-11T01:45:36.706Z,929.68
2017-05-11T01:45:56.692Z,929.73
2017-05-11T01:46:16.694Z,929.7
2017-05-11T01:46:36.142Z,929.71
2017-05-11T01:46:56.151Z,929.67
2017-05-11T01:47:16.138Z,929.7
2017-05-11T01:47:36.137Z,929.66
2017-05-11T01:47:56.161Z,929.65
2017-05-11T01:48:16.185Z,929.67
2017-05-11T01:48:36.201Z,929.64
2017-05-11T01:48:56.170Z,929.63
2017-05-11T01:49:15.622Z,929.61
2017-05-11T01:49:35.597Z,929.63
2017-05-11T01:49:55.578Z,929.63
2017-05-11T01:50:15.539Z,929.65
2017-05-11T01:50:35.560Z,929.62
2017-05-11T01:50:55.539Z,929.63
2017-05-11T01:51:15.521Z,929.61
2017-05-11T01:51:35.530Z,929.58
2017-05-11T01:51:54.433Z,929.58
2017-05-11T01:52:14.414Z,929.53
2017-05-11T01:52:33.878Z,929.57
2017-05-11T01:52:53.848Z,929.57
2017-05-11T01:53:13.833Z,929.56
2017-05-11T01:53:33.842Z,929.57
2017-05-11T01:53:53.831Z,929.54
2017-05-11T01:54:13.835Z,929.58
2017-05-11T01:54:33.837Z,929.56
2017-05-11T01:54:53.819Z,929.56
2017-05-11T01:55:13.843Z,929.5
2017-05-11T01:55:33.861Z,929.55
2017-05-11T01:55:53.851Z,929.53
2017-05-11T01:56:13.261Z,929.51
2017-05-11T01:56:33.365Z,929.5
2017-05-11T01:56:53.348Z,929.54
2017-05-11T01:57:12.227Z,929.49
2017-05-11T01:57:32.234Z,929.5
2017-05-11T01:57:51.098Z,929.5
2017-05-11T01:58:11.078Z,929.5
2017-05-11T01:58:30.524Z,929.51
2017-05-11T01:58:50.520Z,929.46
2017-05-11T01:59:10.523Z,929.56
2017-05-11T01:59:30.483Z,929.51
2017-05-11T01:59:49.917Z,929.54
2017-05-11T02:00:09.356Z,929.55
2017-05-11T02:00:29.347Z,929.53
2017-05-11T02:00:49.338Z,929.5
2017-05-11T02:01:08.774Z,929.53
2017-05-11T02:01:28.204Z,929.54
2017-05-11T02:01:48.176Z,929.54
2017-05-11T02:02:07.622Z,929.53
2017-05-11T02:02:27.740Z,929.53
2017-05-11T02:02:47.786Z,929.48
2017-05-11T02:03:07.794Z,929.5
2017-05-11T02:03:27.805Z,929.49
2017-05-11T02:03:47.801Z,929.47
2017-05-11T02:04:07.776Z,929.49
2017-05-11T02:04:27.213Z,929.44
2017-05-11T02:04:47.210Z,929.47
2017-05-11T02:05:07.182Z,929.46
2017-05-11T02:05:27.162Z,929.45
2017-05-11T02:05:47.135Z,929.43
2017-05-11T02:06:07.115Z,929.45
2017-05-11T02:06:27.109Z,929.46
2017-05-11T02:06:47.094Z,929.45
2017-05-11T02:07:07.157Z,929.46
2017-05-11T02:07:27.128Z,929.47
2017-05-11T02:07:47.093Z,929.46
2017-05-11T02:08:07.172Z,929.48
2017-05-11T02:08:26.762Z,929.52
2017-05-11T02:08:46.764Z,929.48
2017-05-11T02:09:06.771Z,929.48
2017-05-11T02:09:26.781Z,929.48
2017-05-11T02:09:46.759Z,929.51
2017-05-11T02:10:32.550Z,929.51
2017-05-11T02:10:52.558Z,929.5
2017-05-11T02:11:12.459Z,929.47
2017-05-11T02:11:32.437Z,929.5
2017-05-11T02:11:52.464Z,929.47
2017-05-11T02:12:12.473Z,929.46
2017-05-11T02:12:32.686Z,929.46
2017-05-11T02:12:52.662Z,929.47
2017-05-11T02:13:11.494Z,929.49
2017-05-11T02:13:31.465Z,929.48
2017-05-11T02:13:51.485Z,929.47
2017-05-11T02:14:11.461Z,929.46
2017-05-11T02:14:31.402Z,929.48
2017-05-11T02:14:51.416Z,929.46
2017-05-11T02:15:10.258Z,929.44
2017-05-11T02:15:30.263Z,929.46
2017-05-11T02:15:50.247Z,929.47
2017-05-11T02:16:10.225Z,929.49
2017-05-11T02:16:30.372Z,929.45
2017-05-11T02:16:50.347Z,929.46
2017-05-11T02:17:10.333Z,929.46
2017-05-11T02:17:30.326Z,929.47
2017-05-11T02:17:50.357Z,929.5
2017-05-11T02:18:10.357Z,929.47
2017-05-11T02:18:30.663Z,929.48
2017-05-11T02:18:50.674Z,929.48
2017-05-11T02:19:10.684Z,929.51
2017-05-11T02:19:30.679Z,929.51
2017-05-11T02:19:50.703Z,929.51
2017-05-11T02:20:10.700Z,929.5
2017-05-11T02:20:30.081Z,929.5
2017-05-11T02:20:50.114Z,929.5
2017-05-11T02:21:10.132Z,929.51
2017-05-11T02:21:29.568Z,929.5
2017-05-11T02:21:49.549Z,929.48
2017-05-11T02:22:09.503Z,929.49
2017-05-11T02:22:29.483Z,929.54
2017-05-11T02:22:48.889Z,929.47
2017-05-11T02:23:08.839Z,929.51
2017-05-11T02:23:28.827Z,929.47
2017-05-11T02:23:48.834Z,929.46
2017-05-11T02:24:08.247Z,929.46
2017-05-11T02:24:28.251Z,929.47
2017-05-11T02:24:48.201Z,929.48
2017-05-11T02:25:08.194Z,929.46
2017-05-11T02:25:27.622Z,929.48
2017-05-11T02:25:47.606Z,929.46
2017-05-11T02:26:07.026Z,929.46
2017-05-11T02:26:27.091Z,929.45
2017-05-11T02:26:47.082Z,929.45
2017-05-11T02:27:07.395Z,929.46
2017-05-11T02:27:31.491Z,929.45
2017-05-11T02:27:51.511Z,929.48
2017-05-11T02:28:10.942Z,929.49
2017-05-11T02:28:30.934Z,929.45
2017-05-11T02:28:50.908Z,929.45
2017-05-11T02:29:10.353Z,929.47
2017-05-11T02:29:30.354Z,929.49
2017-05-11T02:29:49.836Z,929.51
2017-05-11T02:30:09.370Z,929.52
2017-05-11T02:30:28.830Z,929.48
2017-05-11T02:30:48.835Z,929.43
2017-05-11T02:31:08.821Z,929.48
2017-05-11T02:31:28.827Z,929.44
2017-05-11T02:31:48.985Z,929.45
2017-05-11T02:32:09.075Z,929.46
2017-05-11T02:32:29.110Z,929.45
2017-05-11T02:32:49.094Z,929.44
2017-05-11T02:33:09.055Z,929.42
2017-05-11T02:33:29.035Z,929.42
2017-05-11T02:33:49.024Z,929.43
2017-05-11T02:34:09.151Z,929.41
2017-05-11T02:34:29.281Z,929.36
2017-05-11T02:34:49.846Z,929.39
2017-05-11T02:35:09.794Z,929.35
2017-05-11T02:35:29.771Z,929.37
2017-05-11T02:35:49.206Z,929.38
2017-05-11T02:36:09.185Z,929.37
2017-05-11T02:36:29.425Z,929.35
2017-05-11T02:36:50.195Z,929.37
2017-05-11T02:37:10.223Z,929.39
2017-05-11T02:37:30.843Z,929.32
2017-05-11T02:37:51.075Z,929.33
2017-05-11T02:38:11.245Z,929.33
2017-05-11T02:38:31.563Z,929.31
2017-05-11T02:38:51.553Z,929.37
2017-05-11T02:39:10.990Z,929.36
2017-05-11T02:39:30.937Z,929.33
2017-05-11T02:39:50.944Z,929.35
2017-05-11T02:40:11.080Z,929.33
2017-05-11T02:40:31.097Z,929.34
2017-05-11T02:40:51.094Z,929.36
2017-05-11T02:41:11.669Z,929.38
2017-05-11T02:41:31.669Z,929.37
2017-05-11T02:41:51.626Z,929.39
2017-05-11T02:42:11.619Z,929.39
2017-05-11T02:42:31.082Z,929.41
2017-05-11T02:42:50.552Z,929.42
2017-05-11T02:43:10.551Z,929.43
2017-05-11T02:43:30.543Z,929.39
2017-05-11T02:43:50.539Z,929.43
2017-05-11T02:44:10.557Z,929.43
2017-05-11T02:44:30.543Z,929.43
2017-05-11T02:44:50.037Z,929.45
2017-05-11T02:45:09.459Z,929.43
2017-05-11T02:45:29.472Z,929.43
2017-05-11T02:45:49.477Z,929.41
2017-05-11T02:46:08.685Z,929.42
2017-05-11T02:46:28.279Z,929.44
2017-05-11T02:46:47.591Z,929.45
2017-05-11T02:47:06.826Z,929.47
2017-05-11T02:47:26.092Z,929.43
2017-05-11T02:47:45.363Z,929.45
2017-05-11T02:48:04.634Z,929.44
2017-05-11T02:48:23.888Z,929.41
2017-05-11T02:48:43.157Z,929.43
2017-05-11T02:49:02.475Z,929.46
2017-05-11T02:49:21.210Z,929.39
2017-05-11T02:49:40.514Z,929.41
2017-05-11T02:49:59.802Z,929.41
2017-05-11T02:50:19.040Z,929.39
2017-05-11T02:50:38.277Z,929.4
2017-05-11T02:50:57.593Z,929.36
2017-05-11T02:51:16.873Z,929.36
2017-05-11T02:51:36.175Z,929.39
2017-05-11T02:51:55.458Z,929.36
2017-05-11T02:52:14.223Z,929.34
2017-05-11T02:52:33.524Z,929.3
2017-05-11T02:52:52.760Z,929.33
2017-05-11T02:53:12.004Z,929.33
2017-05-11T02:53:31.267Z,929.33
2017-05-11T02:53:50.539Z,929.31
2017-05-11T02:54:09.798Z,929.31
2017-05-11T02:54:29.072Z,929.3
2017-05-11T02:54:48.324Z,929.23
2017-05-11T02:55:07.640Z,929.29
2017-05-11T02:55:26.407Z,929.27
2017-05-11T02:55:45.673Z,929.22
2017-05-11T02:56:04.933Z,929.25
2017-05-11T02:56:23.727Z,929.25
2017-05-11T02:56:42.986Z,929.28
2017-05-11T02:57:01.755Z,929.25
2017-05-11T02:57:20.523Z,929.22
2017-05-11T02:57:39.788Z,929.28
2017-05-11T02:57:59.009Z,929.26
2017-05-11T02:58:17.737Z,929.23
2017-05-11T02:58:36.552Z,929.29
2017-05-11T02:58:55.842Z,929.26
2017-05-11T02:59:15.107Z,929.25
2017-05-11T02:59:34.374Z,929.24
2017-05-11T02:59:53.117Z,929.21
2017-05-11T03:00:12.370Z,929.23
2017-05-11T03:00:31.646Z,929.21
2017-05-11T03:00:50.909Z,929.25
2017-05-11T03:01:10.398Z,929.24
2017-05-11T03:01:29.683Z,929.21
2017-05-11T03:01:48.962Z,929.22
2017-05-11T03:02:08.207Z,929.17
2017-05-11T03:02:27.462Z,929.21
2017-05-11T03:02:46.744Z,929.2
2017-05-11T03:03:05.977Z,929.17
2017-05-11T03:03:25.258Z,929.19
2017-05-11T03:03:44.012Z,929.19
2017-05-11T03:04:03.317Z,929.2
2017-05-11T03:04:22.611Z,929.23
2017-05-11T03:04:41.906Z,929.18
2017-05-11T03:05:01.190Z,929.19
2017-05-11T03:05:20.486Z,929.22
2017-05-11T03:05:39.785Z,929.17
2017-05-11T03:05:59.074Z,929.2
2017-05-11T03:06:18.145Z,929.19
2017-05-11T03:06:37.450Z,929.21
2017-05-11T03:06:56.223Z,929.18
2017-05-11T03:07:14.982Z,929.18
2017-05-11T03:07:34.233Z,929.2
2017-05-11T03:07:53.530Z,929.2
2017-05-11T03:08:12.803Z,929.21
2017-05-11T03:08:32.054Z,929.23
2017-05-11T03:08:50.268Z,929.22
2017-05-11T03:09:09.051Z,929.22
2017-05-11T03:09:28.354Z,929.22
2017-05-11T03:09:47.620Z,929.24
2017-05-11T03:10:06.345Z,929.28
2017-05-11T03:10:25.127Z,929.27
2017-05-11T03:10:44.414Z,929.29
2017-05-11T03:11:03.190Z,929.26
2017-05-11T03:11:22.474Z,929.25
2017-05-11T03:11:41.741Z,929.25
2017-05-11T03:12:00.482Z,929.28
2017-05-11T03:12:19.768Z,929.27
2017-05-11T03:12:39.031Z,929.31
2017-05-11T03:13:12.292Z,929.27
2017-05-11T03:13:31.577Z,929.31
2017-05-11T03:13:50.876Z,929.28
2017-05-11T03:14:10.158Z,929.22
2017-05-11T03:14:29.444Z,929.24
2017-05-11T03:14:48.732Z,929.23
2017-05-11T03:15:08.062Z,929.23
2017-05-11T03:15:27.353Z,929.24
2017-05-11T03:15:46.594Z,929.25
2017-05-11T03:16:05.878Z,929.25
2017-05-11T03:16:25.155Z,929.25
2017-05-11T03:16:44.425Z,929.23
2017-05-11T03:17:03.211Z,929.25
2017-05-11T03:17:22.482Z,929.25
2017-05-11T03:17:41.777Z,929.25
2017-05-11T03:18:01.076Z,929.24
2017-05-11T03:18:19.355Z,929.22
2017-05-11T03:18:38.635Z,929.22
2017-05-11T03:18:57.980Z,929.22
2017-05-11T03:19:16.755Z,929.22
2017-05-11T03:19:36.035Z,929.2
2017-05-11T03:19:55.346Z,929.21
2017-05-11T03:20:14.676Z,929.21
2017-05-11T03:20:33.944Z,929.2
2017-05-11T03:20:53.223Z,929.2
2017-05-11T03:21:12.265Z,929.21
2017-05-11T03:21:31.575Z,929.23
2017-05-11T03:21:50.862Z,929.25
2017-05-11T03:22:10.147Z,929.23
2017-05-11T03:22:29.433Z,929.22
2017-05-11T03:22:48.217Z,929.24
2017-05-11T03:23:07.025Z,929.19
2017-05-11T03:23:26.303Z,929.21
2017-05-11T03:23:45.594Z,929.2
2017-05-11T03:24:04.891Z,929.19
2017-05-11T03:24:23.673Z,929.19
2017-05-11T03:24:42.977Z,929.18
2017-05-11T03:25:02.285Z,929.21
2017-05-11T03:25:21.598Z,929.21
2017-05-11T03:25:40.863Z,929.24
2017-05-11T03:25:59.619Z,929.2
2017-05-11T03:26:18.390Z,929.2
2017-05-11T03:26:37.699Z,929.2
2017-05-11T03:26:56.975Z,929.21
2017-05-11T03:27:15.712Z,929.24
2017-05-11T03:27:34.952Z,929.18
2017-05-11T03:27:54.272Z,929.18
2017-05-11T03:28:13.509Z,929.19
2017-05-11T03:28:32.774Z,929.23
2017-05-11T03:28:51.578Z,929.16
2017-05-11T03:29:10.341Z,929.19
2017-05-11T03:29:29.655Z,929.19
2017-05-11T03:29:48.893Z,929.16
2017-05-11T03:30:07.647Z,929.18
2017-05-11T03:30:26.916Z,929.19
2017-05-11T03:30:46.215Z,929.21
2017-05-11T03:31:05.494Z,929.18
2017-05-11T03:31:24.990Z,929.18
2017-05-11T03:31:43.760Z,929.19
2017-05-11T03:32:02.993Z,929.14
2017-05-11T03:32:22.287Z,929.16
2017-05-11T03:32:43.626Z,929.12
2017-05-11T03:33:02.511Z,929.16
2017-05-11T03:33:22.518Z,929.18
2017-05-11T03:33:42.509Z,929.16
2017-05-11T03:34:01.931Z,929.14
2017-05-11T03:34:21.916Z,929.11
2017-05-11T03:34:41.940Z,929.11
2017-05-11T03:35:01.939Z,929.11
2017-05-11T03:35:21.916Z,929.1
2017-05-11T03:35:41.318Z,929.11
2017-05-11T03:36:01.280Z,929.07
2017-05-11T03:36:21.277Z,929.09
2017-05-11T03:36:41.279Z,929.05
2017-05-11T03:37:01.327Z,929.04
2017-05-11T03:37:21.371Z,929.05
2017-05-11T03:37:41.325Z,929.05
2017-05-11T03:38:01.326Z,929.04
2017-05-11T03:38:21.325Z,929.04
2017-05-11T03:38:41.326Z,929.04
2017-05-11T03:39:01.354Z,929.07
2017-05-11T03:39:21.381Z,929.06
2017-05-11T03:39:41.369Z,929.04
2017-05-11T03:40:01.350Z,929.01
2017-05-11T03:40:21.370Z,929.05
2017-05-11T03:40:41.372Z,929.02
2017-05-11T03:41:00.817Z,929.06
2017-05-11T03:41:20.752Z,929.02
2017-05-11T03:41:40.763Z,929.04
2017-05-11T03:42:00.764Z,929.04
2017-05-11T03:42:20.717Z,929.01
2017-05-11T03:42:40.695Z,929.02
2017-05-11T03:43:00.142Z,928.99
2017-05-11T03:43:20.114Z,929.01
2017-05-11T03:43:40.114Z,929.02
2017-05-11T03:43:59.574Z,928.98
2017-05-11T03:44:19.218Z,928.96
2017-05-11T03:44:38.501Z,928.96
2017-05-11T03:44:57.816Z,928.96
2017-05-11T03:45:17.103Z,928.95
2017-05-11T03:45:36.417Z,928.97
2017-05-11T03:45:55.708Z,928.96
2017-05-11T03:46:15.157Z,928.96
2017-05-11T03:46:34.439Z,928.97
2017-05-11T03:46:53.733Z,928.93
2017-05-11T03:47:13.069Z,928.96
2017-05-11T03:47:32.342Z,928.91
2017-05-11T03:47:51.086Z,928.93
2017-05-11T03:48:09.849Z,928.93
2017-05-11T03:48:29.118Z,928.91
2017-05-11T03:48:48.385Z,928.92
2017-05-11T03:49:07.687Z,928.95
2017-05-11T03:49:26.996Z,928.93
2017-05-11T03:49:46.257Z,928.9
2017-05-11T03:50:05.475Z,928.91
2017-05-11T03:50:24.744Z,928.9
2017-05-11T03:50:44.026Z,928.9
2017-05-11T03:51:02.818Z,928.92
2017-05-11T03:51:22.313Z,928.91
2017-05-11T03:51:41.629Z,928.9
2017-05-11T03:52:00.379Z,928.87
2017-05-11T03:52:19.651Z,928.93
2017-05-11T03:52:38.926Z,928.86
2017-05-11T03:52:58.210Z,928.87
2017-05-11T03:53:17.469Z,928.92
2017-05-11T03:53:36.744Z,928.89
2017-05-11T03:53:56.018Z,928.89
2017-05-11T03:54:15.325Z,928.88
2017-05-11T03:54:34.623Z,928.91
2017-05-11T03:54:53.917Z,928.88
2017-05-11T03:55:13.229Z,928.87
2017-05-11T03:55:32.530Z,928.88
2017-05-11T03:55:51.333Z,928.85
2017-05-11T03:56:10.590Z,928.84
2017-05-11T03:56:29.871Z,928.84
2017-05-11T03:56:49.187Z,928.86
2017-05-11T03:57:08.485Z,928.84
2017-05-11T03:57:27.776Z,928.83
2017-05-11T03:57:47.023Z,928.84
2017-05-11T03:58:05.774Z,928.82
2017-05-11T03:58:24.023Z,928.83
2017-05-11T03:58:43.271Z,928.87
2017-05-11T03:59:02.581Z,928.88
2017-05-11T03:59:21.874Z,928.9
2017-05-11T03:59:41.159Z,928.84
2017-05-11T03:59:59.427Z,928.87
2017-05-11T04:00:18.174Z,928.9
2017-05-11T04:00:37.470Z,928.88
2017-05-11T04:00:58.210Z,928.88
2017-05-11T04:01:17.603Z,928.89
2017-05-11T04:01:36.909Z,928.9
2017-05-11T04:01:56.188Z,928.9
2017-05-11T04:02:14.938Z,928.89
2017-05-11T04:02:33.683Z,928.86
2017-05-11T04:02:52.460Z,928.86
2017-05-11T04:03:11.230Z,928.89
2017-05-11T04:03:30.513Z,928.87
2017-05-11T04:03:49.814Z,928.85
2017-05-11T04:04:09.072Z,928.89
2017-05-11T04:04:28.365Z,928.87
2017-05-11T04:04:47.617Z,928.83
2017-05-11T04:05:06.919Z,928.84
2017-05-11T04:05:26.190Z,928.88
2017-05-11T04:05:45.447Z,928.88
2017-05-11T04:06:04.215Z,928.85
2017-05-11T04:06:23.537Z,928.91
2017-05-11T04:06:42.780Z,928.89
2017-05-11T04:07:01.544Z,928.88
2017-05-11T04:07:20.309Z,928.89
2017-05-11T04:07:39.603Z,928.89